Time;durP1;ratioP1;P1;durP2;ratioP2;P2;SDS_P1;SDS_P2;PMS_P1;PMS_P2;Temp;Humidity;BMP_temperature;BMP_pressure;BME280_temperature;BME280_humidity;BME280_pressure;Samples;Min_cycle;Max_cycle;Signal;HPM_P1;HPM_P2
2021/05/20 00:01:25;;;;;;;3.30;2.97;;;9.50;99.90;;;;;;5011242;28;20080;-56
2021/05/20 00:03:52;;;;;;;8.70;3.20;;;9.50;99.90;;;;;;5009686;28;20527;-56
2021/05/20 00:06:17;;;;;;;3.95;2.85;;;9.50;99.90;;;;;;5015474;28;20479;-58
2021/05/20 00:08:43;;;;;;;5.93;3.70;;;9.40;99.90;;;;;;5009854;28;20030;-56
2021/05/20 00:11:09;;;;;;;3.13;2.83;;;9.30;99.90;;;;;;5010739;28;20479;-56
2021/05/20 00:13:38;;;;;;;3.63;3.10;;;9.30;99.90;;;;;;5011951;28;20034;-57
2021/05/20 00:16:04;;;;;;;8.90;3.20;;;9.30;99.90;;;;;;5025024;28;20403;-58
2021/05/20 00:18:32;;;;;;;10.45;4.20;;;9.20;99.90;;;;;;5014934;28;20092;-55
2021/05/20 00:21:01;;;;;;;10.70;3.40;;;9.20;99.90;;;;;;5010327;28;20049;-57
2021/05/20 00:23:27;;;;;;;5.53;3.30;;;9.20;99.90;;;;;;5008383;28;20168;-57
2021/05/20 00:25:52;;;;;;;3.67;2.92;;;9.10;99.90;;;;;;5009978;28;20440;-58
2021/05/20 00:28:18;;;;;;;4.47;3.28;;;9.10;99.90;;;;;;5009832;28;20033;-57
2021/05/20 00:30:47;;;;;;;3.67;3.10;;;9.00;99.90;;;;;;5010850;28;20041;-56
2021/05/20 00:33:12;;;;;;;4.50;3.42;;;8.90;99.90;;;;;;5009973;28;20029;-58
2021/05/20 00:35:38;;;;;;;4.45;3.30;;;8.80;99.90;;;;;;5010776;28;20041;-58
2021/05/20 00:38:11;;;;;;;4.75;3.70;;;8.80;99.90;;;;;;4992145;28;20037;-56
2021/05/20 00:40:38;;;;;;;13.40;3.50;;;8.80;99.90;;;;;;4998823;28;20376;-57
2021/05/20 00:43:06;;;;;;;4.72;3.50;;;8.70;99.90;;;;;;5009881;28;20467;-58
2021/05/20 00:45:32;;;;;;;5.15;3.50;;;8.80;99.90;;;;;;5011430;28;20042;-56
2021/05/20 00:47:58;;;;;;;5.38;3.45;;;8.70;99.90;;;;;;5016022;28;20041;-57
2021/05/20 00:50:24;;;;;;;4.03;3.33;;;8.70;99.90;;;;;;5016856;28;20026;-54
2021/05/20 00:52:49;;;;;;;9.55;3.80;;;8.70;99.90;;;;;;5015808;28;20038;-58
2021/05/20 00:55:20;;;;;;;4.72;3.22;;;8.70;99.90;;;;;;5016754;28;20080;-56
2021/05/20 00:57:48;;;;;;;3.50;3.20;;;8.60;99.90;;;;;;5015594;28;20045;-58
2021/05/20 01:00:20;;;;;;;4.72;3.05;;;8.50;99.90;;;;;;5016837;28;20117;-57
2021/05/20 01:02:46;;;;;;;5.72;3.20;;;8.50;99.90;;;;;;5015214;28;20408;-56
2021/05/20 01:05:13;;;;;;;6.80;3.38;;;8.40;99.90;;;;;;5016493;28;20045;-55
2021/05/20 01:07:40;;;;;;;4.72;3.45;;;8.40;99.90;;;;;;5016394;28;20033;-57
2021/05/20 01:10:07;;;;;;;6.15;3.50;;;8.40;99.90;;;;;;5016679;28;20553;-57
2021/05/20 01:12:35;;;;;;;5.45;3.45;;;8.30;99.90;;;;;;5015846;28;20037;-59
2021/05/20 01:15:02;;;;;;;4.50;3.55;;;8.30;99.90;;;;;;5016904;28;20068;-55
2021/05/20 01:17:28;;;;;;;3.80;3.40;;;8.30;99.90;;;;;;5016682;28;20157;-57
2021/05/20 01:19:54;;;;;;;5.35;3.38;;;8.20;99.90;;;;;;5013519;28;20110;-56
2021/05/20 01:22:20;;;;;;;3.92;3.00;;;8.10;99.90;;;;;;5016735;28;20456;-57
2021/05/20 01:24:49;;;;;;;6.28;3.33;;;8.10;99.90;;;;;;5014727;28;20034;-57
2021/05/20 01:27:15;;;;;;;4.63;2.95;;;8.10;99.90;;;;;;4999352;28;20049;-57
2021/05/20 01:29:43;;;;;;;3.40;3.10;;;8.00;99.90;;;;;;5015928;28;20038;-58
2021/05/20 01:32:10;;;;;;;6.38;3.20;;;8.00;99.90;;;;;;5016766;28;20510;-60
2021/05/20 01:34:40;;;;;;;5.32;3.40;;;7.90;99.90;;;;;;5014882;28;20030;-58
2021/05/20 01:37:09;;;;;;;21.85;3.70;;;7.90;99.90;;;;;;5016929;28;20038;-59
2021/05/20 01:39:38;;;;;;;4.05;3.13;;;7.90;99.90;;;;;;5015899;28;20053;-58
2021/05/20 01:42:04;;;;;;;6.20;3.45;;;7.90;99.90;;;;;;5016447;28;20085;-53
2021/05/20 01:44:30;;;;;;;6.72;3.40;;;7.80;99.90;;;;;;5015408;28;20113;-57
2021/05/20 01:46:56;;;;;;;9.20;3.33;;;7.80;99.90;;;;;;5016469;28;20080;-57
2021/05/20 01:49:21;;;;;;;3.42;2.88;;;7.80;99.90;;;;;;5015829;28;20061;-58
2021/05/20 01:51:50;;;;;;;3.33;3.03;;;7.70;99.90;;;;;;5016018;28;20191;-55
2021/05/20 01:54:16;;;;;;;3.30;2.97;;;7.70;99.90;;;;;;5015659;28;20037;-58
2021/05/20 01:56:41;;;;;;;4.65;3.10;;;7.70;99.90;;;;;;5016220;28;20399;-57
2021/05/20 01:59:08;;;;;;;4.35;3.00;;;7.60;99.90;;;;;;5011205;28;20034;-57
2021/05/20 02:01:34;;;;;;;5.25;3.25;;;7.50;99.90;;;;;;5013587;28;20049;-57
2021/05/20 02:04:00;;;;;;;3.08;2.78;;;7.50;99.90;;;;;;5018354;28;20034;-58
2021/05/20 02:06:26;;;;;;;5.03;2.83;;;7.50;99.90;;;;;;5013595;28;20049;-55
2021/05/20 02:08:52;;;;;;;4.95;2.78;;;7.40;99.90;;;;;;5008567;28;20042;-58
2021/05/20 02:11:21;;;;;;;3.75;2.80;;;7.30;99.90;;;;;;5013451;28;20415;-55
2021/05/20 02:13:47;;;;;;;4.88;2.70;;;7.20;99.90;;;;;;5012753;28;20038;-58
2021/05/20 02:16:16;;;;;;;3.70;2.70;;;7.10;99.90;;;;;;5013255;28;20076;-56
2021/05/20 02:18:42;;;;;;;5.00;2.42;;;7.10;99.90;;;;;;5012907;28;20037;-55
2021/05/20 02:21:11;;;;;;;5.40;2.65;;;7.10;99.90;;;;;;5011921;28;20135;-57
2021/05/20 02:23:40;;;;;;;3.10;2.42;;;7.10;99.90;;;;;;5006600;28;20116;-58
2021/05/20 02:26:05;;;;;;;3.45;2.38;;;7.00;99.90;;;;;;5012371;28;20042;-58
2021/05/20 02:28:32;;;;;;;7.20;2.60;;;6.90;99.90;;;;;;4994036;28;20050;-58
2021/05/20 02:30:58;;;;;;;4.00;2.40;;;6.90;99.90;;;;;;5013158;28;20111;-57
2021/05/20 02:33:23;;;;;;;2.97;2.25;;;6.80;99.90;;;;;;5012004;28;20837;-59
2021/05/20 02:35:49;;;;;;;4.65;2.50;;;6.80;99.90;;;;;;5012694;28;20104;-58
2021/05/20 02:38:15;;;;;;;5.25;3.17;;;6.70;99.90;;;;;;5015451;28;20404;-56
2021/05/20 02:40:41;;;;;;;4.15;2.70;;;6.70;99.90;;;;;;4995038;28;20042;-57
2021/05/20 02:43:07;;;;;;;4.28;2.40;;;6.70;99.90;;;;;;5010370;28;20052;-58
2021/05/20 02:45:38;;;;;;;3.95;2.70;;;6.70;99.90;;;;;;5011046;28;20042;-58
2021/05/20 02:48:04;;;;;;;2.92;2.63;;;6.70;99.90;;;;;;5012731;28;20069;-56
2021/05/20 02:50:30;;;;;;;4.20;2.30;;;6.60;99.90;;;;;;5011302;28;20088;-59
2021/05/20 02:52:56;;;;;;;2.95;2.47;;;6.60;99.90;;;;;;5012138;28;20451;-58
2021/05/20 02:55:23;;;;;;;2.50;2.30;;;6.60;99.90;;;;;;5011563;28;20056;-58
2021/05/20 02:57:54;;;;;;;3.30;2.50;;;6.50;99.90;;;;;;5012295;28;20042;-57
2021/05/20 03:00:21;;;;;;;11.13;3.13;;;6.50;99.90;;;;;;5009123;28;20045;-58
2021/05/20 03:02:51;;;;;;;4.57;2.60;;;6.50;99.90;;;;;;5012217;28;20046;-58
2021/05/20 03:05:17;;;;;;;6.95;2.58;;;6.30;99.90;;;;;;5011412;28;20049;-59
2021/05/20 03:07:46;;;;;;;4.50;2.55;;;6.40;99.90;;;;;;5011640;28;20435;-56
2021/05/20 03:10:12;;;;;;;4.50;2.72;;;6.40;99.90;;;;;;5010733;28;20049;-58
2021/05/20 03:12:38;;;;;;;7.18;2.78;;;6.40;99.90;;;;;;5011838;28;20044;-59
2021/05/20 03:15:08;;;;;;;7.50;2.88;;;6.30;99.90;;;;;;5011521;28;20117;-57
2021/05/20 03:17:34;;;;;;;2.85;2.42;;;6.30;99.90;;;;;;5011667;28;20096;-55
2021/05/20 03:20:01;;;;;;;2.92;2.60;;;6.30;99.90;;;;;;5011347;28;20041;-57
2021/05/20 03:22:29;;;;;;;5.43;3.00;;;6.30;99.90;;;;;;5011938;28;20050;-58
2021/05/20 03:24:55;;;;;;;3.65;2.90;;;6.30;99.90;;;;;;5008311;28;20034;-58
2021/05/20 03:27:21;;;;;;;3.33;2.40;;;6.30;99.90;;;;;;5012311;28;20037;-56
2021/05/20 03:29:47;;;;;;;5.97;2.75;;;6.20;99.90;;;;;;5010380;28;20041;-56
2021/05/20 03:32:12;;;;;;;2.78;2.47;;;6.20;99.90;;;;;;5012039;28;20398;-57
2021/05/20 03:34:38;;;;;;;3.20;2.63;;;6.20;99.90;;;;;;5010812;28;20487;-58
2021/05/20 03:37:04;;;;;;;5.10;2.60;;;6.10;99.90;;;;;;5011868;28;20038;-56
2021/05/20 03:39:33;;;;;;;4.00;2.60;;;6.10;99.90;;;;;;5020814;28;20353;-59
2021/05/20 03:41:59;;;;;;;6.85;2.80;;;6.00;99.90;;;;;;4986496;28;20049;-59
2021/05/20 03:44:28;;;;;;;4.47;2.67;;;6.00;99.90;;;;;;5012065;28;20559;-57
2021/05/20 03:46:55;;;;;;;3.13;2.63;;;6.00;99.90;;;;;;5011360;28;20038;-57
2021/05/20 03:49:20;;;;;;;4.05;2.58;;;5.90;99.90;;;;;;4992681;28;20088;-56
2021/05/20 03:51:46;;;;;;;7.50;2.72;;;5.90;99.90;;;;;;5011439;28;20061;-57
2021/05/20 03:54:12;;;;;;;4.50;2.70;;;5.90;99.90;;;;;;5010494;28;20391;-58
2021/05/20 03:56:37;;;;;;;3.58;2.55;;;5.90;99.90;;;;;;5010966;28;20033;-58
2021/05/20 03:59:03;;;;;;;4.15;2.78;;;5.80;99.90;;;;;;5010281;28;20464;-57
2021/05/20 04:01:29;;;;;;;5.13;2.50;;;5.80;99.90;;;;;;5011342;28;20056;-56
2021/05/20 04:03:55;;;;;;;8.05;2.88;;;5.80;99.90;;;;;;4992396;28;20045;-56
2021/05/20 04:06:23;;;;;;;5.50;2.55;;;5.70;99.90;;;;;;5011549;28;20034;-57
2021/05/20 04:08:49;;;;;;;7.80;2.90;;;5.80;99.90;;;;;;5010120;28;20037;-55
2021/05/20 04:11:15;;;;;;;6.80;2.70;;;5.70;99.90;;;;;;5010624;28;20045;-57
2021/05/20 04:13:42;;;;;;;3.03;2.42;;;5.70;99.90;;;;;;5004434;28;20037;-57
2021/05/20 04:16:11;;;;;;;10.45;3.13;;;5.70;99.90;;;;;;5002024;28;20038;-58
2021/05/20 04:18:38;;;;;;;7.93;2.55;;;5.70;99.90;;;;;;5011691;28;20045;-59
2021/05/20 04:21:09;;;;;;;5.50;2.50;;;5.70;99.90;;;;;;5009129;28;20042;-57
2021/05/20 04:23:41;;;;;;;8.07;2.92;;;5.70;99.90;;;;;;5010427;28;20026;-53
2021/05/20 04:26:10;;;;;;;5.38;2.60;;;5.60;99.90;;;;;;5009240;28;20041;-57
2021/05/20 04:28:35;;;;;;;3.47;2.40;;;5.60;99.90;;;;;;5009607;28;20042;-58
2021/05/20 04:31:04;;;;;;;4.85;2.53;;;5.50;99.90;;;;;;5009885;28;20065;-55
2021/05/20 04:33:32;;;;;;;4.47;2.03;;;5.50;99.90;;;;;;5010304;28;20189;-58
2021/05/20 04:35:57;;;;;;;8.68;3.03;;;5.60;99.90;;;;;;5009366;28;20052;-58
2021/05/20 04:38:23;;;;;;;9.65;2.40;;;5.70;99.90;;;;;;5009281;28;20034;-57
2021/05/20 04:40:52;;;;;;;6.43;2.38;;;5.70;99.90;;;;;;5008846;28;20064;-58
2021/05/20 04:43:18;;;;;;;10.20;2.70;;;5.70;99.90;;;;;;5010484;28;20034;-56
2021/05/20 04:45:46;;;;;;;10.13;2.90;;;5.80;99.90;;;;;;5010024;28;20034;-55
2021/05/20 04:48:12;;;;;;;7.00;2.58;;;5.90;99.90;;;;;;5010312;28;20057;-57
2021/05/20 04:50:40;;;;;;;6.35;2.65;;;5.90;99.90;;;;;;5008841;28;20030;-57
2021/05/20 04:53:05;;;;;;;3.80;2.30;;;6.00;99.90;;;;;;5010069;28;20160;-57
2021/05/20 04:55:31;;;;;;;7.55;2.75;;;6.10;99.90;;;;;;5009988;28;20120;-57
2021/05/20 04:57:57;;;;;;;4.43;2.67;;;6.20;99.90;;;;;;5010332;28;20081;-57
2021/05/20 05:00:23;;;;;;;7.03;3.13;;;6.30;99.90;;;;;;5009285;28;20045;-57
2021/05/20 05:02:52;;;;;;;10.65;4.45;;;6.30;99.90;;;;;;5010134;28;20046;-58
2021/05/20 05:05:17;;;;;;;13.70;4.53;;;6.60;99.90;;;;;;5009038;28;20100;-59
2021/05/20 05:07:44;;;;;;;19.55;4.40;;;6.90;99.90;;;;;;5010597;28;20488;-58
2021/05/20 05:10:13;;;;;;;15.05;4.82;;;7.20;99.90;;;;;;5009309;28;20545;-58
2021/05/20 05:12:39;;;;;;;12.27;5.07;;;7.50;99.90;;;;;;5010309;28;20058;-59
2021/05/20 05:15:06;;;;;;;9.70;5.07;;;7.70;99.90;;;;;;5009464;28;20128;-58
2021/05/20 05:17:32;;;;;;;15.23;5.45;;;7.80;99.90;;;;;;5009657;28;20041;-57
2021/05/20 05:19:57;;;;;;;17.10;6.20;;;8.00;99.90;;;;;;4991755;28;20041;-57
2021/05/20 05:22:23;;;;;;;19.67;6.53;;;8.20;99.90;;;;;;5010146;28;20128;-58
2021/05/20 05:24:49;;;;;;;14.57;5.90;;;8.20;99.90;;;;;;5009477;28;20104;-58
2021/05/20 05:27:15;;;;;;;12.43;6.05;;;8.40;99.90;;;;;;5009553;28;20038;-57
2021/05/20 05:29:44;;;;;;;17.83;6.55;;;8.40;99.90;;;;;;5009340;28;20026;-58
2021/05/20 05:32:11;;;;;;;18.88;6.78;;;8.60;99.90;;;;;;5012045;28;20041;-59
2021/05/20 05:34:37;;;;;;;14.32;6.70;;;8.70;99.90;;;;;;5013406;28;20054;-56
2021/05/20 05:37:03;;;;;;;16.48;7.13;;;8.70;99.90;;;;;;5013709;28;20034;-57
2021/05/20 05:39:29;;;;;;;18.50;7.10;;;8.80;99.90;;;;;;5013058;28;20041;-57
2021/05/20 05:41:55;;;;;;;21.48;7.60;;;8.90;99.90;;;;;;5013248;28;20042;-60
2021/05/20 05:44:21;;;;;;;20.63;8.45;;;8.90;99.90;;;;;;5012685;28;20097;-56
2021/05/20 05:46:47;;;;;;;22.55;6.68;;;9.00;99.90;;;;;;5013769;28;20041;-58
2021/05/20 05:49:18;;;;;;;33.47;7.90;;;9.00;99.90;;;;;;5013177;28;20108;-57
2021/05/20 05:51:51;;;;;;;25.20;8.20;;;9.10;99.90;;;;;;5012808;28;20049;-58
2021/05/20 05:54:17;;;;;;;19.52;6.75;;;9.20;99.90;;;;;;5013874;28;20042;-56
2021/05/20 05:56:43;;;;;;;24.92;7.38;;;9.30;99.90;;;;;;5012414;28;20133;-55
2021/05/20 05:59:10;;;;;;;25.35;7.18;;;9.20;99.90;;;;;;5013759;28;20442;-57
2021/05/20 06:01:40;;;;;;;21.13;7.22;;;9.20;99.90;;;;;;5012090;28;20073;-57
2021/05/20 06:04:10;;;;;;;19.48;6.65;;;9.30;99.90;;;;;;5012836;28;20041;-58
2021/05/20 06:06:36;;;;;;;18.60;7.03;;;9.40;99.90;;;;;;5012441;28;20121;-56
2021/05/20 06:09:05;;;;;;;16.75;6.50;;;9.40;99.90;;;;;;5013039;28;20046;-58
2021/05/20 06:11:34;;;;;;;24.60;7.47;;;9.50;99.90;;;;;;5011872;28;20045;-57
2021/05/20 06:14:06;;;;;;;22.50;7.18;;;9.60;99.90;;;;;;5012108;28;20511;-58
2021/05/20 06:16:34;;;;;;;19.13;6.45;;;9.60;99.90;;;;;;5012282;28;20073;-57
2021/05/20 06:19:03;;;;;;;32.70;7.68;;;9.70;99.90;;;;;;5011539;28;20041;-58
2021/05/20 06:21:32;;;;;;;22.35;8.05;;;9.70;99.90;;;;;;5000794;28;20058;-57
2021/05/20 06:23:59;;;;;;;30.95;9.32;;;9.70;99.90;;;;;;5012625;28;20088;-55
2021/05/20 06:26:25;;;;;;;16.92;5.68;;;9.80;99.90;;;;;;5010347;28;20036;-59
2021/05/20 06:28:51;;;;;;;14.73;5.68;;;9.90;99.90;;;;;;5013016;28;20041;-59
2021/05/20 06:31:20;;;;;;;17.42;5.35;;;9.80;99.90;;;;;;5011687;28;20037;-57
2021/05/20 06:33:47;;;;;;;21.55;6.40;;;9.80;99.90;;;;;;5012710;28;20045;-57
2021/05/20 06:36:12;;;;;;;14.07;5.60;;;10.00;99.90;;;;;;5011655;28;20088;-56
2021/05/20 06:38:38;;;;;;;23.30;5.68;;;10.00;99.90;;;;;;5012548;28;20457;-57
2021/05/20 06:41:07;;;;;;;16.90;5.25;;;10.10;99.90;;;;;;5011602;28;20034;-57
2021/05/20 06:43:37;;;;;;;34.00;6.50;;;10.20;99.90;;;;;;4990081;28;20713;-58
2021/05/20 06:46:05;;;;;;;11.70;5.40;;;10.10;99.90;;;;;;5019946;28;20496;-56
2021/05/20 06:48:34;;;;;;;17.23;6.07;;;10.20;99.90;;;;;;5012686;28;20125;-57
2021/05/20 06:51:00;;;;;;;20.40;5.53;;;10.30;99.90;;;;;;5012137;28;20045;-59
2021/05/20 06:53:29;;;;;;;30.00;7.45;;;10.30;99.90;;;;;;5011839;28;20110;-58
2021/05/20 06:55:58;;;;;;;18.80;6.07;;;10.40;99.90;;;;;;5011399;28;20042;-59
2021/05/20 07:01:08;;;;;;;14.60;5.80;;;10.60;99.90;;;;;;5010839;28;20100;-59
2021/05/20 07:03:34;;;;;;;24.40;6.53;;;10.60;99.90;;;;;;5009597;28;20045;-57
2021/05/20 07:05:59;;;;;;;22.00;5.72;;;10.60;99.90;;;;;;5010727;28;20037;-57
2021/05/20 07:08:25;;;;;;;25.92;5.53;;;10.60;99.90;;;;;;5011246;28;20034;-60
2021/05/20 07:10:56;;;;;;;15.10;4.97;;;10.70;99.90;;;;;;5011014;28;20270;-58
2021/05/20 07:13:23;;;;;;;18.25;4.57;;;10.70;99.90;;;;;;5011201;28;20042;-57
2021/05/20 07:15:49;;;;;;;10.90;4.65;;;10.70;99.90;;;;;;5010197;28;20077;-59
2021/05/20 07:18:15;;;;;;;20.40;4.50;;;10.70;99.90;;;;;;5011738;28;20034;-57
2021/05/20 07:20:41;;;;;;;13.18;4.60;;;10.80;99.90;;;;;;5010317;28;20515;-58
2021/05/20 07:23:15;;;;;;;19.27;4.95;;;10.70;99.90;;;;;;5011468;28;20041;-57
2021/05/20 07:25:45;;;;;;;21.57;6.00;;;10.70;99.90;;;;;;5008746;28;20033;-58
2021/05/20 07:28:12;;;;;;;18.65;4.57;;;10.70;99.90;;;;;;5005754;28;20371;-59
2021/05/20 07:30:39;;;;;;;10.90;3.60;;;10.80;99.90;;;;;;5010364;28;20041;-54
2021/05/20 07:33:05;;;;;;;10.02;4.10;;;10.80;99.90;;;;;;5018814;28;20459;-59
2021/05/20 07:35:37;;;;;;;19.52;5.13;;;10.80;99.90;;;;;;4992905;28;20046;-58
2021/05/20 07:38:03;;;;;;;20.30;4.97;;;10.90;99.90;;;;;;5010434;28;20045;-59
2021/05/20 07:40:31;;;;;;;16.92;4.47;;;11.00;99.90;;;;;;5010211;28;20057;-57
2021/05/20 07:42:57;;;;;;;15.85;5.35;;;11.10;99.90;;;;;;5009797;28;20125;-56
2021/05/20 07:45:23;;;;;;;18.77;4.60;;;11.10;99.90;;;;;;5009200;28;20172;-57
2021/05/20 07:47:51;;;;;;;20.95;4.57;;;11.20;99.90;;;;;;5014767;28;20033;-57
2021/05/20 07:50:20;;;;;;;25.60;5.18;;;11.30;99.90;;;;;;5015707;28;20076;-58
2021/05/20 07:52:47;;;;;;;18.98;4.20;;;11.30;99.90;;;;;;5010336;28;20069;-57
2021/05/20 07:55:14;;;;;;;27.23;4.75;;;11.30;99.90;;;;;;5009044;28;20038;-57
2021/05/20 07:57:40;;;;;;;20.02;4.03;;;11.40;99.90;;;;;;5013050;28;20092;-55
2021/05/20 08:00:08;;;;;;;13.32;4.07;;;11.40;99.90;;;;;;5009698;28;20431;-58
2021/05/20 08:02:42;;;;;;;16.33;4.07;;;11.50;99.90;;;;;;5010068;28;20116;-58
2021/05/20 08:05:21;;;;;;;14.60;3.70;;;11.50;99.90;;;;;;5010890;28;20496;-57
2021/05/20 08:08:15;;;;;;;36.75;5.45;;;11.50;99.90;;;;;;5011588;28;20034;-59
2021/05/20 08:13:09;;;;;;;23.88;4.18;;;11.60;99.90;;;;;;5010674;28;20755;-55
2021/05/20 08:15:35;;;;;;;19.08;4.10;;;11.60;99.90;;;;;;5005280;28;20376;-59
2021/05/20 08:18:03;;;;;;;26.05;4.30;;;11.60;99.90;;;;;;5009490;28;20545;-61
2021/05/20 08:20:29;;;;;;;15.88;3.75;;;11.60;99.90;;;;;;5009244;28;20042;-59
2021/05/20 08:22:58;;;;;;;20.80;3.28;;;11.60;99.90;;;;;;4992607;28;20053;-58
2021/05/20 08:25:27;;;;;;;27.50;4.25;;;11.60;99.90;;;;;;5011003;28;20033;-59
2021/05/20 08:27:52;;;;;;;14.48;3.10;;;11.70;99.90;;;;;;5010151;28;20042;-56
2021/05/20 08:30:19;;;;;;;12.38;2.88;;;11.70;99.90;;;;;;5015613;28;20454;-58
2021/05/20 08:32:47;;;;;;;13.75;2.72;;;11.80;99.90;;;;;;5009723;28;20029;-58
2021/05/20 08:35:13;;;;;;;15.88;2.80;;;11.80;99.90;;;;;;5010345;28;20508;-59
2021/05/20 08:37:43;;;;;;;34.70;10.73;;;11.90;99.90;;;;;;4999919;28;20746;-57
2021/05/20 08:40:14;;;;;;;11.60;2.80;;;12.00;99.90;;;;;;5009988;28;20116;-56
2021/05/20 08:42:41;;;;;;;15.13;3.10;;;12.00;99.90;;;;;;5003684;28;20030;-56
2021/05/20 08:45:15;;;;;;;34.13;3.70;;;12.00;99.90;;;;;;5009864;28;20096;-56
2021/05/20 08:47:44;;;;;;;21.77;3.58;;;12.00;99.90;;;;;;5009274;28;20045;-58
2021/05/20 08:50:11;;;;;;;26.60;3.22;;;12.10;99.90;;;;;;5009889;28;20053;-58
2021/05/20 08:52:38;;;;;;;21.25;5.82;;;12.20;99.90;;;;;;5009025;28;20387;-57
2021/05/20 08:55:07;;;;;;;27.98;3.60;;;12.30;99.90;;;;;;5010639;28;20145;-57
2021/05/20 08:57:33;;;;;;;14.27;2.40;;;12.40;99.90;;;;;;5009742;28;20030;-59
2021/05/20 08:59:59;;;;;;;10.95;2.00;;;12.50;99.90;;;;;;5010353;28;20116;-59
2021/05/20 09:02:28;;;;;;;27.67;3.35;;;12.70;99.90;;;;;;5009272;28;20141;-57
2021/05/20 09:05:07;;;;;;;17.42;2.70;;;12.80;99.90;;;;;;5009661;28;20052;-58
2021/05/20 09:07:36;;;;;;;12.20;2.22;;;12.90;99.90;;;;;;5011952;28;20042;-59
2021/05/20 09:10:19;;;;;;;15.38;2.80;;;12.90;99.90;;;;;;5026440;28;20406;-59
2021/05/20 09:12:46;;;;;;;11.23;2.83;;;12.90;99.90;;;;;;5008203;28;20068;-58
2021/05/20 09:15:22;;;;;;;7.03;2.03;;;12.90;99.90;;;;;;5008257;28;20038;-59
2021/05/20 09:17:49;;;;;;;13.80;3.60;;;12.80;99.90;;;;;;5013478;28;20038;-59
2021/05/20 09:20:16;;;;;;;11.02;2.25;;;12.90;99.90;;;;;;5013578;28;20038;-59
2021/05/20 09:22:43;;;;;;;12.73;2.30;;;12.80;99.90;;;;;;5013451;28;20137;-57
2021/05/20 09:25:14;;;;;;;36.53;3.72;;;12.90;99.90;;;;;;5013089;28;20176;-58
2021/05/20 09:27:45;;;;;;;14.77;3.20;;;12.80;99.90;;;;;;5021318;28;20037;-57
2021/05/20 09:30:23;;;;;;;7.97;2.10;;;12.80;99.90;;;;;;4996859;28;20041;-58
2021/05/20 09:32:52;;;;;;;14.55;2.70;;;12.80;99.90;;;;;;5013038;28;20077;-57
2021/05/20 09:35:20;;;;;;;8.85;1.92;;;12.80;99.90;;;;;;5014232;28;20044;-57
2021/05/20 09:38:02;;;;;;;8.75;2.60;;;12.80;99.90;;;;;;5013145;28;20038;-57
2021/05/20 09:40:44;;;;;;;8.63;2.70;;;12.90;99.90;;;;;;5012731;28;20518;-55
2021/05/20 09:43:21;;;;;;;8.60;2.30;;;12.90;99.90;;;;;;5013042;28;20076;-58
2021/05/20 09:45:52;;;;;;;34.75;4.72;;;13.00;99.90;;;;;;5013989;28;20462;-58
2021/05/20 09:48:21;;;;;;;18.73;2.35;;;13.10;99.90;;;;;;5010326;28;20034;-59
2021/05/20 09:50:49;;;;;;;22.38;2.92;;;13.10;99.90;;;;;;5013656;28;20033;-59
2021/05/20 09:53:17;;;;;;;15.00;2.40;;;13.30;99.90;;;;;;4995924;28;20088;-54
2021/05/20 09:55:45;;;;;;;26.75;3.22;;;13.40;99.90;;;;;;5014567;28;20043;-57
2021/05/20 09:58:14;;;;;;;12.25;2.53;;;13.40;99.90;;;;;;5016704;28;20558;-58
2021/05/20 10:00:43;;;;;;;13.50;2.85;;;13.50;99.90;;;;;;5013362;28;20050;-57
2021/05/20 10:03:14;;;;;;;23.08;3.38;;;13.50;99.90;;;;;;5013024;28;20038;-57
2021/05/20 10:05:41;;;;;;;16.27;6.20;;;13.70;99.90;;;;;;5012897;28;20048;-58
2021/05/20 10:08:12;;;;;;;21.42;4.32;;;13.80;99.90;;;;;;5022313;28;20037;-59
2021/05/20 10:10:40;;;;;;;19.02;3.30;;;13.80;99.90;;;;;;5016253;28;20030;-60
2021/05/20 10:13:11;;;;;;;18.35;3.42;;;13.70;99.90;;;;;;5012038;28;20045;-59
2021/05/20 10:15:40;;;;;;;16.70;3.17;;;13.70;99.90;;;;;;5000118;28;20044;-57
2021/05/20 10:18:07;;;;;;;7.65;2.05;;;13.60;99.90;;;;;;5012141;28;20038;-56
2021/05/20 10:20:35;;;;;;;9.32;2.40;;;13.50;99.90;;;;;;5011525;28;20045;-59
2021/05/20 10:23:11;;;;;;;10.63;2.33;;;13.50;99.90;;;;;;5011878;28;20045;-58
2021/05/20 10:25:38;;;;;;;17.02;2.75;;;13.50;99.90;;;;;;4993970;28;20042;-56
2021/05/20 10:28:06;;;;;;;21.83;3.42;;;13.50;99.90;;;;;;5012625;28;20092;-59
2021/05/20 10:30:34;;;;;;;15.50;3.08;;;13.50;99.90;;;;;;5012921;28;20092;-55
2021/05/20 10:33:00;;;;;;;17.63;3.20;;;13.60;99.90;;;;;;5012082;28;20465;-57
2021/05/20 10:35:47;;;;;;;12.38;2.58;;;13.60;99.90;;;;;;5013312;28;20041;-58
2021/05/20 10:38:34;;;;;;;13.70;2.85;;;13.70;99.90;;;;;;5012172;28;20038;-57
2021/05/20 10:41:17;;;;;;;13.52;2.80;;;13.80;99.90;;;;;;5014977;28;20128;-56
2021/05/20 10:43:44;;;;;;;16.48;2.50;;;13.80;99.90;;;;;;5013325;28;20107;-57
2021/05/20 10:46:17;;;;;;;16.70;2.53;;;13.70;99.90;;;;;;5014797;28;20176;-57
2021/05/20 10:48:57;;;;;;;20.60;2.97;;;13.80;99.90;;;;;;5022285;28;20041;-57
2021/05/20 10:51:35;;;;;;;38.67;4.63;;;13.80;99.90;;;;;;5012125;28;20046;-54
2021/05/20 10:54:04;;;;;;;15.68;2.20;;;13.70;99.90;;;;;;5013783;28;20088;-57
2021/05/20 10:56:30;;;;;;;14.63;2.72;;;13.70;99.90;;;;;;5012528;28;20396;-57
2021/05/20 10:58:58;;;;;;;10.40;2.50;;;13.70;99.90;;;;;;5012452;28;20042;-57
2021/05/20 11:01:27;;;;;;;11.25;2.53;;;13.60;99.90;;;;;;5012476;28;20029;-58
2021/05/20 11:03:58;;;;;;;15.02;2.47;;;13.60;99.90;;;;;;5012622;28;20733;-58
2021/05/20 11:06:43;;;;;;;10.30;2.20;;;13.50;99.90;;;;;;5013793;28;20167;-54
2021/05/20 11:09:15;;;;;;;14.13;2.33;;;13.60;99.90;;;;;;5012468;28;20117;-57
2021/05/20 11:11:41;;;;;;;9.23;2.22;;;13.70;99.90;;;;;;5004390;28;20575;-57
2021/05/20 11:14:13;;;;;;;18.63;2.72;;;13.70;99.90;;;;;;5012613;28;20050;-58
2021/05/20 11:16:49;;;;;;;14.02;2.42;;;13.70;99.90;;;;;;5004519;28;20133;-56
2021/05/20 11:19:24;;;;;;;15.70;2.60;;;13.70;99.90;;;;;;5011703;28;20137;-58
2021/05/20 11:22:02;;;;;;;21.67;2.33;;;13.70;99.90;;;;;;5010990;28;20165;-57
2021/05/20 11:24:34;;;;;;;9.73;1.95;;;13.70;99.90;;;;;;5012171;28;20096;-56
2021/05/20 11:27:05;;;;;;;11.00;2.47;;;13.70;99.90;;;;;;5011501;28;20042;-58
2021/05/20 11:29:33;;;;;;;25.90;3.88;;;13.70;99.90;;;;;;5011781;28;20069;-56
2021/05/20 11:32:17;;;;;;;22.25;3.30;;;13.60;99.90;;;;;;5012231;28;20498;-56
2021/05/20 11:37:27;;;;;;;13.40;2.30;;;13.60;99.90;;;;;;5025213;28;20383;-56
2021/05/20 11:39:53;;;;;;;10.65;2.30;;;13.60;99.90;;;;;;5009586;28;20130;-58
2021/05/20 11:42:27;;;;;;;13.38;2.85;;;13.60;99.90;;;;;;5011028;28;20173;-59
2021/05/20 11:44:54;;;;;;;13.13;2.60;;;13.70;99.90;;;;;;5011846;28;20042;-58
2021/05/20 11:47:22;;;;;;;15.57;2.50;;;13.70;99.90;;;;;;5011243;28;20045;-57
2021/05/20 11:49:49;;;;;;;11.00;2.88;;;13.80;99.90;;;;;;5011460;28;20073;-56
2021/05/20 11:52:15;;;;;;;13.80;2.55;;;13.90;99.90;;;;;;5010797;28;20048;-59
2021/05/20 11:54:46;;;;;;;11.63;2.72;;;13.90;99.90;;;;;;5011643;28;20033;-57
2021/05/20 11:57:14;;;;;;;13.48;2.90;;;13.90;99.90;;;;;;5010977;28;20034;-58
2021/05/20 11:59:50;;;;;;;13.70;3.10;;;13.80;99.90;;;;;;5014019;28;20483;-54
2021/05/20 12:02:25;;;;;;;14.10;2.92;;;13.80;99.90;;;;;;5010212;28;20089;-56
2021/05/20 12:05:00;;;;;;;7.40;2.47;;;13.80;99.90;;;;;;5011238;28;20053;-60
2021/05/20 12:07:31;;;;;;;10.57;2.88;;;13.70;99.90;;;;;;5010497;28;20049;-56
2021/05/20 12:10:07;;;;;;;12.63;3.00;;;13.70;99.90;;;;;;5011270;28;20042;-57
2021/05/20 12:12:36;;;;;;;13.25;2.88;;;13.60;99.90;;;;;;5010755;28;20034;-55
2021/05/20 12:15:12;;;;;;;14.30;2.63;;;13.60;99.90;;;;;;5011527;28;20049;-57
2021/05/20 12:17:38;;;;;;;14.52;2.80;;;13.70;99.90;;;;;;4997334;28;20041;-55
2021/05/20 12:20:10;;;;;;;10.43;2.65;;;13.70;99.90;;;;;;5011136;28;20125;-57
2021/05/20 12:22:39;;;;;;;14.00;2.60;;;13.80;99.90;;;;;;5010435;28;20058;-58
2021/05/20 12:25:13;;;;;;;31.42;3.75;;;13.80;99.90;;;;;;5011007;28;20038;-54
2021/05/20 12:27:39;;;;;;;26.17;3.40;;;13.80;99.90;;;;;;4997292;28;20056;-58
2021/05/20 12:30:06;;;;;;;17.77;2.83;;;13.80;99.90;;;;;;5010797;28;20050;-58
2021/05/20 12:32:39;;;;;;;26.88;3.10;;;13.90;99.90;;;;;;5010288;28;20057;-59
2021/05/20 12:35:14;;;;;;;16.23;3.10;;;13.90;99.90;;;;;;5011635;28;20038;-56
2021/05/20 12:37:52;;;;;;;16.85;3.08;;;13.80;99.90;;;;;;5009554;28;20153;-57
2021/05/20 12:40:32;;;;;;;9.75;2.33;;;13.90;99.90;;;;;;5010875;28;20045;-58
2021/05/20 12:43:28;;;;;;;16.38;2.88;;;13.90;99.90;;;;;;5003305;28;20034;-56
2021/05/20 12:46:12;;;;;;;14.35;2.45;;;14.00;99.90;;;;;;5005345;28;20043;-56
2021/05/20 12:48:58;;;;;;;18.67;2.40;;;14.30;99.90;;;;;;5010163;28;20033;-56
2021/05/20 12:51:25;;;;;;;9.77;1.92;;;14.40;99.90;;;;;;5001198;28;20164;-58
2021/05/20 12:53:56;;;;;;;15.23;2.45;;;14.30;99.90;;;;;;4992234;28;20454;-56
2021/05/20 12:56:38;;;;;;;16.90;2.78;;;14.30;99.90;;;;;;5010367;28;20041;-56
2021/05/20 12:59:09;;;;;;;8.18;2.03;;;14.30;99.90;;;;;;5010255;28;20034;-54
2021/05/20 13:01:39;;;;;;;13.88;2.22;;;14.30;99.90;;;;;;5010619;28;20042;-56